Decoded Metar for KHNZ (HENDERSON/OXFORD in NC, USA) (IATA:HNZ) | Meteo·Mobile Aviation Weather
aviador You're here:

KHNZ Decoded Metar

HENDERSON/OXFORD in NC, USA
Report Time2019-08-19 18:15:00
UTC Time2019-08-19 18:27:27
Flight Rules vfr VFR
Wind240° at 07 kt
W.Decomp.*RWY 24: 6.9 kt HW 0.9 kt RCW
Visibility9999 m
Phenomena:N/A
Clouds:N/A
Expected CloudBase > 4,800 ft AGL from Temp-Dew spread
CeilingNone
Temp33°C (ISA +19)
Dew Point21°C (49% RH)
Heat Index36.0°C
QNH1017 hPa
Density Alt2,890 ft
Elevation528 ft
Report Wrong Elevation
Raw Report
KHNZ 191815Z AUTO 24007KT 10SM CLR 33/21 A3004 RMK AO2
T03290211=

Extra information for KHNZ:More info

Metar Taf Metar & Taf Last 4 Metars F.Rules Stats Wind Profile Meteogram Temp Stats Airport Information Weather charts Add Link Nearby VenuesMetar ALERT Operation Metar Decoded Social comments

AIRNAV info for KHNZ